createdAt,value
2022-11-13T00:02:03.077Z,110.27
2022-11-13T00:04:48.287Z,114.43
2022-11-13T00:07:33.956Z,110.68
2022-11-13T00:10:19.507Z,111.90
2022-11-13T00:13:05.053Z,105.50
2022-11-13T00:16:01.345Z,105.93
2022-11-13T00:18:47.833Z,112.07
2022-11-13T00:21:33.362Z,108.38
2022-11-13T00:24:19.314Z,104.47
2022-11-13T00:27:04.798Z,111.47
2022-11-13T00:29:50.220Z,101.82
2022-11-13T00:32:37.946Z,106.63
2022-11-13T00:35:23.872Z,104.97
2022-11-13T00:38:09.680Z,98.93
2022-11-13T00:40:55.339Z,106.45
2022-11-13T00:43:41.194Z,106.43
2022-11-13T00:46:27.019Z,100.40
2022-11-13T00:49:13.226Z,108.75
2022-11-13T00:52:00.403Z,103.95
2022-11-13T00:54:46.132Z,99.93
2022-11-13T00:57:32.048Z,99.60
2022-11-13T01:00:17.915Z,105.40
2022-11-13T01:03:03.572Z,107.87
2022-11-13T01:05:49.247Z,103.95
2022-11-13T01:08:34.795Z,100.07
2022-11-13T01:11:22.818Z,96.72
2022-11-13T01:14:09.175Z,97.32
2022-11-13T01:16:54.746Z,109.87
2022-11-13T01:19:40.370Z,111.93
2022-11-13T01:22:26.024Z,97.90
2022-11-13T01:25:11.489Z,113.67
2022-11-13T01:27:56.997Z,112.00
2022-11-13T01:30:42.611Z,124.67
2022-11-13T01:33:28.964Z,119.13
2022-11-13T01:36:18.223Z,118.13
2022-11-13T01:39:04.212Z,120.70
2022-11-13T01:41:49.949Z,121.33
2022-11-13T01:44:51.220Z,125.07
2022-11-13T01:47:36.890Z,121.47
2022-11-13T01:50:22.471Z,120.83
2022-11-13T01:53:08.984Z,118.53
2022-11-13T01:55:55.179Z,125.03
2022-11-13T01:58:44.176Z,121.87
2022-11-13T02:01:29.951Z,111.70
2022-11-13T02:04:15.862Z,117.77
2022-11-13T02:07:04.491Z,117.90
2022-11-13T02:09:53.339Z,122.23
2022-11-13T02:12:43.082Z,114.22
2022-11-13T02:15:33.649Z,119.40
2022-11-13T02:18:22.266Z,121.53
2022-11-13T02:21:31.158Z,114.30
2022-11-13T02:24:24.911Z,121.33
2022-11-13T02:27:34.815Z,129.20
2022-11-13T02:30:33.463Z,119.77
2022-11-13T02:33:21.396Z,120.17
2022-11-13T02:36:09.747Z,118.10
2022-11-13T02:38:58.440Z,122.83
2022-11-13T02:41:44.372Z,115.37
2022-11-13T02:44:30.234Z,125.63
2022-11-13T02:47:16.280Z,114.10
2022-11-13T02:50:02.214Z,115.80
2022-11-13T02:52:47.631Z,111.33
2022-11-13T02:55:37.484Z,115.20
2022-11-13T02:58:23.227Z,106.82
2022-11-13T03:01:08.938Z,113.20
2022-11-13T03:03:58.567Z,110.50
2022-11-13T03:06:44.697Z,113.90
2022-11-13T03:09:29.987Z,127.53
2022-11-13T03:12:15.432Z,120.80
2022-11-13T03:15:01.219Z,118.47
2022-11-13T03:17:46.906Z,121.37
2022-11-13T03:20:33.657Z,134.50
2022-11-13T03:23:19.713Z,110.47
2022-11-13T03:26:09.819Z,118.83
2022-11-13T03:28:56.512Z,115.10
2022-11-13T03:31:42.792Z,118.87
2022-11-13T03:34:28.738Z,111.80
2022-11-13T03:37:14.732Z,120.53
2022-11-13T03:40:00.696Z,118.00
2022-11-13T03:42:46.570Z,111.83
2022-11-13T03:45:32.790Z,118.27
2022-11-13T03:48:18.631Z,110.70
2022-11-13T03:51:04.929Z,113.97
2022-11-13T03:53:51.022Z,129.80
2022-11-13T03:56:36.737Z,117.20
2022-11-13T03:59:22.183Z,121.67
2022-11-13T04:02:07.753Z,136.77
2022-11-13T04:04:53.097Z,129.13
2022-11-13T04:07:38.630Z,128.77
2022-11-13T04:10:24.372Z,126.40
2022-11-13T04:13:10.478Z,130.13
2022-11-13T04:15:55.915Z,139.00
2022-11-13T04:18:41.514Z,127.87
2022-11-13T04:21:27.918Z,118.70
2022-11-13T04:24:13.648Z,123.83
2022-11-13T04:26:59.146Z,135.83
2022-11-13T04:29:44.964Z,124.33
2022-11-13T04:32:30.353Z,138.00
2022-11-13T04:35:16.076Z,122.20
2022-11-13T04:38:01.941Z,125.80
2022-11-13T04:40:51.631Z,127.87
2022-11-13T04:43:37.504Z,128.10
2022-11-13T04:46:23.505Z,129.67
2022-11-13T04:49:09.260Z,125.43
2022-11-13T04:51:54.984Z,139.60
2022-11-13T04:54:40.854Z,134.07
2022-11-13T04:57:26.654Z,123.87
2022-11-13T05:00:12.717Z,134.77
2022-11-13T05:02:58.345Z,126.80
2022-11-13T05:05:44.238Z,121.53
2022-11-13T05:08:30.362Z,134.07
2022-11-13T05:11:16.186Z,122.13
2022-11-13T05:14:03.704Z,120.23
2022-11-13T05:16:50.228Z,114.33
2022-11-13T05:19:36.344Z,124.17
2022-11-13T05:22:21.685Z,124.70
2022-11-13T05:25:07.506Z,120.67
2022-11-13T05:27:53.200Z,123.33
2022-11-13T05:30:38.868Z,128.33
2022-11-13T05:33:24.647Z,129.07
2022-11-13T05:36:13.019Z,132.07
2022-11-13T05:38:58.712Z,127.27
2022-11-13T05:41:44.373Z,131.10
2022-11-13T05:44:30.075Z,124.70
2022-11-13T05:47:15.861Z,137.50
2022-11-13T05:50:01.699Z,134.50
2022-11-13T05:52:48.211Z,138.87
2022-11-13T05:55:33.893Z,120.77
2022-11-13T05:58:19.787Z,132.33
2022-11-13T06:01:15.381Z,133.70
2022-11-13T06:04:02.191Z,132.60
2022-11-13T06:06:47.944Z,134.83
2022-11-13T06:09:33.764Z,134.43
2022-11-13T06:12:19.142Z,130.57
2022-11-13T06:15:04.854Z,134.07
2022-11-13T06:17:50.755Z,123.73
2022-11-13T06:20:37.276Z,137.03
2022-11-13T06:23:22.926Z,124.27
2022-11-13T06:26:38.863Z,140.90
2022-11-13T06:29:24.481Z,116.33
2022-11-13T06:32:10.165Z,132.83
2022-11-13T06:34:55.833Z,119.53
2022-11-13T06:37:40.919Z,158.63
2022-11-13T06:40:26.675Z,125.17
2022-11-13T06:43:12.697Z,215.83
2022-11-13T06:45:58.673Z,120.33
2022-11-13T06:48:44.860Z,121.20
2022-11-13T06:51:31.633Z,110.27
2022-11-13T06:54:17.501Z,107.83
2022-11-13T06:57:03.089Z,141.23
2022-11-13T06:59:48.977Z,110.50
2022-11-13T07:02:34.591Z,125.50
2022-11-13T07:05:20.526Z,103.67
2022-11-13T07:08:06.591Z,118.73
2022-11-13T07:10:57.207Z,102.50
2022-11-13T07:13:43.139Z,176.40
2022-11-13T07:16:39.050Z,150.70
2022-11-13T07:19:34.238Z,99.73
2022-11-13T07:22:19.748Z,107.13
2022-11-13T07:25:06.028Z,94.97
2022-11-13T07:27:52.549Z,121.83
2022-11-13T07:30:38.179Z,100.53
2022-11-13T07:33:23.840Z,87.27
2022-11-13T07:36:10.538Z,256.70
2022-11-13T07:39:00.080Z,106.17
2022-11-13T07:41:47.821Z,112.93
2022-11-13T07:44:53.537Z,91.70
2022-11-13T07:47:39.323Z,94.60
2022-11-13T07:50:24.929Z,84.17
2022-11-13T07:53:11.109Z,89.87
2022-11-13T07:55:59.807Z,85.47
2022-11-13T07:58:45.213Z,143.93
2022-11-13T08:01:31.050Z,110.67
2022-11-13T08:04:16.767Z,96.00
2022-11-13T08:07:02.673Z,132.90
2022-11-13T08:09:48.422Z,103.87
2022-11-13T08:12:34.019Z,88.00
2022-11-13T08:15:19.938Z,69.93
2022-11-13T08:18:06.091Z,85.13
2022-11-13T08:20:51.792Z,134.43
2022-11-13T08:23:37.396Z,86.83
2022-11-13T08:26:23.040Z,92.90
2022-11-13T08:29:08.780Z,75.20
2022-11-13T08:31:54.219Z,84.23
2022-11-13T08:34:39.969Z,80.13
2022-11-13T08:37:25.955Z,84.03
2022-11-13T08:40:12.207Z,100.37
2022-11-13T08:43:02.397Z,82.67
2022-11-13T08:45:48.127Z,74.07
2022-11-13T08:48:34.003Z,60.10
2022-11-13T08:51:19.681Z,105.33
2022-11-13T08:54:05.734Z,82.77
2022-11-13T08:56:56.584Z,78.03
2022-11-13T08:59:43.252Z,72.43
2022-11-13T09:02:28.891Z,67.47
2022-11-13T09:05:14.757Z,66.87
2022-11-13T09:08:01.505Z,77.73
2022-11-13T09:10:47.641Z,82.00
2022-11-13T09:13:35.785Z,68.80
2022-11-13T09:16:23.145Z,69.77
2022-11-13T09:19:08.787Z,70.57
2022-11-13T09:21:54.940Z,78.30
2022-11-13T09:24:40.462Z,70.97
2022-11-13T09:27:26.043Z,73.37
2022-11-13T09:30:12.083Z,73.97
2022-11-13T09:32:59.568Z,71.60
2022-11-13T09:35:45.768Z,74.93
2022-11-13T09:38:32.267Z,70.38
2022-11-13T09:41:31.970Z,72.55
2022-11-13T09:44:45.165Z,70.10
2022-11-13T09:47:37.490Z,73.00
2022-11-13T09:50:27.392Z,69.63
2022-11-13T09:53:14.608Z,72.63
2022-11-13T09:56:29.358Z,68.68
2022-11-13T09:59:43.034Z,67.67
2022-11-13T10:02:57.541Z,63.17
2022-11-13T10:05:52.289Z,65.38
2022-11-13T10:08:57.708Z,67.78
2022-11-13T10:12:04.612Z,60.33
2022-11-13T10:14:53.893Z,65.00
2022-11-13T10:17:45.146Z,66.95
2022-11-13T10:20:40.179Z,67.45
2022-11-13T10:23:33.413Z,65.75
2022-11-13T10:26:21.850Z,69.88
2022-11-13T10:29:20.307Z,75.38
2022-11-13T10:32:18.943Z,74.60
2022-11-13T10:35:07.753Z,67.05
2022-11-13T10:38:08.493Z,76.10
2022-11-13T10:41:14.258Z,73.50
2022-11-13T10:44:05.941Z,74.55
2022-11-13T10:46:51.830Z,71.50
2022-11-13T10:49:37.650Z,79.43
2022-11-13T10:52:26.051Z,74.20
2022-11-13T10:55:28.179Z,76.85
2022-11-13T10:58:19.895Z,77.53
2022-11-13T11:01:24.358Z,74.40
2022-11-13T11:04:24.631Z,79.68
2022-11-13T11:07:24.199Z,80.63
2022-11-13T11:10:34.081Z,87.28
2022-11-13T11:13:24.043Z,87.97
2022-11-13T11:16:15.470Z,84.03
2022-11-13T11:19:05.929Z,80.28
2022-11-13T11:21:56.965Z,82.47
2022-11-13T11:24:50.116Z,88.88
2022-11-13T11:27:59.336Z,83.35
2022-11-13T11:30:50.718Z,78.75
2022-11-13T11:33:47.634Z,88.70
2022-11-13T11:37:03.167Z,84.90
2022-11-13T11:40:29.403Z,81.15
2022-11-13T11:43:27.066Z,80.45
2022-11-13T11:46:14.365Z,81.18
2022-11-13T11:49:01.778Z,83.50
2022-11-13T11:51:47.456Z,89.35
2022-11-13T11:54:48.852Z,78.60
2022-11-13T11:58:07.199Z,77.75
2022-11-13T12:01:10.266Z,86.93
2022-11-13T12:04:10.715Z,82.50
2022-11-13T12:07:05.287Z,84.78
2022-11-13T12:10:00.011Z,83.45
2022-11-13T12:13:03.353Z,86.57
2022-11-13T12:15:58.975Z,82.22
2022-11-13T12:18:50.504Z,87.90
2022-11-13T12:21:39.203Z,82.50
2022-11-13T12:24:46.188Z,87.25
2022-11-13T12:27:51.955Z,86.60
2022-11-13T12:30:44.624Z,86.85
2022-11-13T12:33:29.970Z,89.10
2022-11-13T12:36:16.219Z,87.93
2022-11-13T12:39:23.813Z,85.07
2022-11-13T12:42:35.935Z,89.95
2022-11-13T12:45:44.512Z,87.72
2022-11-13T12:48:40.830Z,85.05
2022-11-13T12:51:41.163Z,88.88
2022-11-13T12:54:32.477Z,89.03
2022-11-13T12:57:27.229Z,92.43
2022-11-13T13:00:28.244Z,92.95
2022-11-13T13:03:16.871Z,89.82
2022-11-13T13:06:25.602Z,89.03
2022-11-13T13:09:41.626Z,89.82
2022-11-13T13:12:46.299Z,82.80
2022-11-13T13:15:37.946Z,79.38
2022-11-13T13:18:35.988Z,88.00
2022-11-13T13:21:22.121Z,89.90
2022-11-13T13:24:38.012Z,83.72
2022-11-13T13:27:29.247Z,92.38
2022-11-13T13:30:26.437Z,96.15
2022-11-13T13:33:33.176Z,92.30
2022-11-13T13:36:28.407Z,98.38
2022-11-13T13:39:16.865Z,99.60
2022-11-13T13:42:21.567Z,97.85
2022-11-13T13:45:35.343Z,95.93
2022-11-13T13:48:25.592Z,96.18
2022-11-13T13:51:22.456Z,84.63
2022-11-13T13:54:09.976Z,91.22
2022-11-13T13:56:58.158Z,83.70
2022-11-13T13:59:47.537Z,82.32
2022-11-13T14:02:33.235Z,84.35
2022-11-13T14:05:31.003Z,79.43
2022-11-13T14:08:18.692Z,82.38
2022-11-13T14:11:27.168Z,77.55
2022-11-13T14:14:22.057Z,78.05
2022-11-13T14:17:10.068Z,74.82
2022-11-13T14:20:01.008Z,78.40
2022-11-13T14:22:55.054Z,76.22
2022-11-13T14:25:43.520Z,77.13
2022-11-13T14:28:32.774Z,75.65
2022-11-13T14:31:20.392Z,82.90
2022-11-13T14:34:17.413Z,75.20
2022-11-13T14:37:20.829Z,83.20
2022-11-13T14:40:23.389Z,79.50
2022-11-13T14:43:16.424Z,77.82
2022-11-13T14:46:05.371Z,76.55
2022-11-13T14:48:56.206Z,71.15
2022-11-13T14:51:42.089Z,75.78
2022-11-13T14:55:07.959Z,77.10
2022-11-13T14:57:50.176Z,76.83
2022-11-13T15:00:38.080Z,73.47
2022-11-13T15:03:24.973Z,73.50
2022-11-13T15:06:20.332Z,72.10
2022-11-13T15:09:14.592Z,75.37
2022-11-13T15:12:00.345Z,74.60
2022-11-13T15:14:46.403Z,73.95
2022-11-13T15:17:32.416Z,72.17
2022-11-13T15:20:29.020Z,71.25
2022-11-13T15:23:16.147Z,70.25
2022-11-13T15:26:01.815Z,73.10
2022-11-13T15:28:47.526Z,70.68
2022-11-13T15:31:40.421Z,71.18
2022-11-13T15:34:27.033Z,72.15
2022-11-13T15:37:14.582Z,74.38
2022-11-13T15:40:00.606Z,73.18
2022-11-13T15:42:46.960Z,76.38
2022-11-13T15:45:32.876Z,74.28
2022-11-13T15:48:18.685Z,73.18
2022-11-13T15:51:04.724Z,76.70
2022-11-13T15:54:01.738Z,78.82
2022-11-13T15:56:48.208Z,78.17
2022-11-13T15:59:33.784Z,75.67
2022-11-13T16:02:19.806Z,79.20
2022-11-13T16:05:05.699Z,79.03
2022-11-13T16:07:53.276Z,77.93
2022-11-13T16:10:38.989Z,85.00
2022-11-13T16:13:24.998Z,84.13
2022-11-13T16:16:35.848Z,82.07
2022-11-13T16:19:25.740Z,75.85
2022-11-13T16:22:25.941Z,80.73
2022-11-13T16:25:18.081Z,83.73
2022-11-13T16:28:04.899Z,86.30
2022-11-13T16:30:51.269Z,87.57
2022-11-13T16:33:37.344Z,79.57
2022-11-13T16:36:23.790Z,76.80
2022-11-13T16:39:15.219Z,82.07
2022-11-13T16:42:00.906Z,84.30
2022-11-13T16:44:46.710Z,86.38
2022-11-13T16:47:32.866Z,94.35
2022-11-13T16:50:31.731Z,96.27
2022-11-13T16:53:17.445Z,91.43
2022-11-13T16:56:10.374Z,93.78
2022-11-13T16:58:57.259Z,90.53
2022-11-13T17:01:43.136Z,93.32
2022-11-13T17:04:29.069Z,101.05
2022-11-13T17:07:15.428Z,100.60
2022-11-13T17:10:24.590Z,109.03
2022-11-13T17:13:06.731Z,109.25
2022-11-13T17:15:52.153Z,96.43
2022-11-13T17:18:37.616Z,97.28
2022-11-13T17:21:25.999Z,104.93
2022-11-13T17:24:11.446Z,102.68
2022-11-13T17:26:57.124Z,105.90
2022-11-13T17:29:42.794Z,108.32
2022-11-13T17:32:28.312Z,106.18
2022-11-13T17:35:13.971Z,103.72
2022-11-13T17:37:59.984Z,111.38
2022-11-13T17:40:45.600Z,112.78
2022-11-13T17:43:31.429Z,107.32
2022-11-13T17:46:18.206Z,104.60
2022-11-13T17:49:04.480Z,108.38
2022-11-13T17:51:51.600Z,103.90
2022-11-13T17:54:37.028Z,114.35
2022-11-13T17:57:26.683Z,114.75
2022-11-13T18:00:13.451Z,118.38
2022-11-13T18:02:59.756Z,122.20
2022-11-13T18:05:46.625Z,126.18
2022-11-13T18:08:33.263Z,135.45
2022-11-13T18:11:27.410Z,132.00
2022-11-13T18:14:13.322Z,131.70
2022-11-13T18:16:58.953Z,130.40
2022-11-13T18:19:45.322Z,138.67
2022-11-13T18:22:31.647Z,132.97
2022-11-13T18:25:18.501Z,158.83
2022-11-13T18:28:04.151Z,146.77
2022-11-13T18:30:56.149Z,153.73
2022-11-13T18:33:42.349Z,144.57
2022-11-13T18:36:28.339Z,140.67
2022-11-13T18:39:16.779Z,156.57
2022-11-13T18:42:02.791Z,162.53
2022-11-13T18:44:48.767Z,151.43
2022-11-13T18:47:34.864Z,159.83
2022-11-13T18:50:22.231Z,142.00
2022-11-13T18:53:07.841Z,155.70
2022-11-13T18:55:53.693Z,169.13
2022-11-13T18:58:41.587Z,163.07
2022-11-13T19:01:31.061Z,157.53
2022-11-13T19:04:22.681Z,170.13
2022-11-13T19:07:12.125Z,144.83
2022-11-13T19:09:57.655Z,140.73
2022-11-13T19:12:43.320Z,145.03
2022-11-13T19:15:29.063Z,144.13
2022-11-13T19:18:14.973Z,151.97
2022-11-13T19:21:05.715Z,150.57
2022-11-13T19:23:51.927Z,155.13
2022-11-13T19:26:37.857Z,156.97
2022-11-13T19:29:23.406Z,157.33
2022-11-13T19:32:09.575Z,151.80
2022-11-13T19:34:55.480Z,165.70
2022-11-13T19:37:41.060Z,156.80
2022-11-13T19:40:26.904Z,157.17
2022-11-13T19:43:12.453Z,167.87
2022-11-13T19:45:58.321Z,154.73
2022-11-13T19:48:45.786Z,163.83
2022-11-13T19:51:31.800Z,154.83
2022-11-13T19:54:17.464Z,162.33
2022-11-13T19:57:03.365Z,151.20
2022-11-13T19:59:48.955Z,154.57
2022-11-13T20:02:34.812Z,173.77
2022-11-13T20:05:21.033Z,177.33
2022-11-13T20:08:07.030Z,179.20
2022-11-13T20:10:52.712Z,172.73
2022-11-13T20:13:39.320Z,187.17
2022-11-13T20:16:25.938Z,183.93
2022-11-13T20:19:11.557Z,172.73
2022-11-13T20:21:56.985Z,185.13
2022-11-13T20:24:42.664Z,187.38
2022-11-13T20:27:28.141Z,174.27
2022-11-13T20:30:13.970Z,184.97
2022-11-13T20:32:59.506Z,185.70
2022-11-13T20:35:52.748Z,191.03
2022-11-13T20:38:38.611Z,180.35
2022-11-13T20:41:25.518Z,173.67
2022-11-13T20:44:12.454Z,179.10
2022-11-13T20:46:58.136Z,181.70
2022-11-13T20:49:43.665Z,169.73
2022-11-13T20:52:29.367Z,170.87
2022-11-13T20:55:15.496Z,192.30
2022-11-13T20:58:01.336Z,173.88
2022-11-13T21:00:46.997Z,216.80
2022-11-13T21:03:37.125Z,190.50
2022-11-13T21:06:25.684Z,178.65
2022-11-13T21:09:11.471Z,180.90
2022-11-13T21:11:57.256Z,186.17
2022-11-13T21:14:44.174Z,174.23
2022-11-13T21:17:29.641Z,158.80
2022-11-13T21:20:15.326Z,168.33
2022-11-13T21:23:00.906Z,163.40
2022-11-13T21:25:46.287Z,174.03
2022-11-13T21:28:33.648Z,174.60
2022-11-13T21:31:20.897Z,187.80
2022-11-13T21:34:06.882Z,196.60
2022-11-13T21:36:52.919Z,217.13
2022-11-13T21:39:38.653Z,218.00
2022-11-13T21:42:24.392Z,195.10
2022-11-13T21:45:10.625Z,205.03
2022-11-13T21:47:56.218Z,215.17
2022-11-13T21:50:42.122Z,203.43
2022-11-13T21:53:27.735Z,198.73
2022-11-13T21:56:15.831Z,199.10
2022-11-13T21:59:01.868Z,208.57
2022-11-13T22:01:47.900Z,293.40
2022-11-13T22:04:33.359Z,237.53
2022-11-13T22:07:19.224Z,209.70
2022-11-13T22:10:08.332Z,222.10
2022-11-13T22:12:53.930Z,210.33
2022-11-13T22:15:39.601Z,205.50
2022-11-13T22:18:25.168Z,213.97
2022-11-13T22:21:12.763Z,253.80
2022-11-13T22:23:59.349Z,198.17
2022-11-13T22:26:45.493Z,217.50
2022-11-13T22:29:31.190Z,201.70
2022-11-13T22:32:16.853Z,267.63
2022-11-13T22:35:02.225Z,188.70
2022-11-13T22:37:47.770Z,263.27
2022-11-13T22:40:33.504Z,188.07
2022-11-13T22:43:19.060Z,194.87
2022-11-13T22:46:10.141Z,171.73
2022-11-13T22:48:58.083Z,176.30
2022-11-13T22:51:43.523Z,199.33
2022-11-13T22:54:28.997Z,255.73
2022-11-13T22:57:14.607Z,182.47
2022-11-13T23:00:00.622Z,169.43
2022-11-13T23:02:47.561Z,152.13
2022-11-13T23:05:36.082Z,134.37
2022-11-13T23:08:21.729Z,116.53
2022-11-13T23:11:11.080Z,106.20
2022-11-13T23:13:59.222Z,117.80
2022-11-13T23:16:45.047Z,100.13
2022-11-13T23:19:30.340Z,101.47
2022-11-13T23:22:15.965Z,93.70
2022-11-13T23:25:01.787Z,91.77
2022-11-13T23:27:47.804Z,90.27
2022-11-13T23:30:33.243Z,100.83
2022-11-13T23:33:19.076Z,90.60
2022-11-13T23:36:09.603Z,105.43
2022-11-13T23:38:55.589Z,88.97
2022-11-13T23:41:41.223Z,95.82
2022-11-13T23:44:26.871Z,90.73
2022-11-13T23:47:12.350Z,89.43
2022-11-13T23:49:57.844Z,92.43
2022-11-13T23:52:43.497Z,85.90
2022-11-13T23:55:29.384Z,83.77
2022-11-13T23:58:16.545Z,82.87
